Georgetown, SC

3:13 AM EDT on September 03, 2014 (GMT -0400)
Browns Ferry | Change Station
CLOSE
Current Station
Personal Weather Station
Location: Georgetown, SC
Elevation: 13 ft
Nearby Weather Stations

Elev 13 ft 33.45 °N, 79.31 °W | Updated 3 minutes ago

Partly Cloudy
Partly Cloudy
75.1 °F
Feels Like 73 °F
N
0.0
Wind Variable Wind from SE
Gusts 1.0 mph

Today
High -- | Low -- °F
--% Chance of Precip.
Yesterday
High -- | Low -- °F
Precip. -- in
6:52 AM 7:39 PM
First Quarter, 59% visible
Pressure 30.04 in
Visibility 10.0 miles
Clouds Scattered Clouds 1800 ft
Heat Index 73 °F
Dew Point 74 °F
Humidity 98%
Rainfall 0.00 in
Snow Depth Not available.
UV 0 out of 12
Pollen 9.00 out of 12
Air Quality Not available.
Flu Activity Not available.
METAR KGGE 030715Z AUTO 00000KT 10SM SCT018 24/24 A3004 RMK AO2

More Conditions Fewer Conditions

Pressure 30.04 in
Visibility 10.0 miles
Clouds Scattered Clouds 1800 ft
Heat Index 73 °F
Dew Point 74 °F
Humidity 98%
Rainfall 0.00 in
Snow Depth Not available.
UV 0 out of 12
Pollen 9.00 out of 12
Air Quality Not available.
Flu Activity Not available.
METAR KGGE 030715Z AUTO 00000KT 10SM SCT018 24/24 A3004 RMK AO2

More Conditions Fewer Conditions

10-Day Weather Forecast

Almanac

Astronomy

Sep. 03, 2014 Rise Set
Actual Time 6:52 AM EDT 7:39 PM EDT
Civil Twilight 6:27 AM EDT 8:05 PM EDT
Nautical Twilight 5:57 AM EDT 8:34 PM EDT
Astronomical Twilight 5:26 AM EDT 9:05 PM EDT
Moon 3:11 PM EDT 12:54 AM EDT
Length of Visible Light 13h 37m
Length of Day
12h 47m
Tomorrow will be 2m 1s shorter.
First Quarter, 59% of the Moon is Illuminated
Today
First Quarter
Sep 8
Full
Sep 15
Last Quarter
Sep 24
New
Oct 1
First Quarter

Today's Extremes

State Highs State Lows

Community

WunderPhotos

Upload Photos

1,749,888 photos uploaded!

Nearby

Snow Depth

Station Depth Elevation
No new snow has been reported.

Earthquake Activity

City Distance Mag. Time & Date
No recent earthquake activity has been reported nearby.
Minimum magnitude displayed is 2.5.

Coastal Water Temperatures

Place Temperature
Springmaid Pier, SC 84.0 °F

Nearby Weather Stations